createdAt,value
2022-10-08T00:00:16.237Z,76.65
2022-10-08T00:03:24.938Z,77.21
2022-10-08T00:06:38.899Z,77.55
2022-10-08T00:09:44.441Z,78.27
2022-10-08T00:12:50.022Z,77.73
2022-10-08T00:15:59.357Z,77.55
2022-10-08T00:19:09.416Z,78.24
2022-10-08T00:22:14.970Z,79.18
2022-10-08T00:25:23.774Z,79.45
2022-10-08T00:28:35.573Z,80.17
2022-10-08T00:31:49.953Z,81.25
2022-10-08T00:34:55.716Z,80.77
2022-10-08T00:38:01.240Z,80.39
2022-10-08T00:41:09.118Z,81.09
2022-10-08T00:44:55.439Z,81.93
2022-10-08T00:48:03.761Z,82.36
2022-10-08T00:51:09.745Z,82.20
2022-10-08T00:54:17.149Z,82.66
2022-10-08T00:57:25.606Z,82.81
2022-10-08T01:00:36.423Z,82.66
2022-10-08T01:03:46.308Z,82.09
2022-10-08T01:07:01.503Z,82.17
2022-10-08T01:10:29.154Z,81.39
2022-10-08T01:13:50.339Z,80.33
2022-10-08T01:17:30.530Z,79.92
2022-10-08T01:20:55.112Z,79.86
2022-10-08T01:24:46.465Z,79.93
2022-10-08T01:28:05.377Z,79.56
2022-10-08T01:31:26.853Z,79.33
2022-10-08T01:34:44.459Z,79.94
2022-10-08T01:37:56.332Z,80.39
2022-10-08T01:41:10.306Z,80.47
2022-10-08T01:44:29.387Z,80.39
2022-10-08T01:47:47.395Z,80.37
2022-10-08T01:51:07.767Z,80.74
2022-10-08T01:54:20.405Z,79.83
2022-10-08T01:57:33.489Z,80.78
2022-10-08T02:00:44.009Z,81.58
2022-10-08T02:04:02.090Z,81.26
2022-10-08T02:07:12.321Z,80.97
2022-10-08T02:10:27.908Z,80.57
2022-10-08T02:13:33.735Z,80.66
2022-10-08T02:16:55.235Z,80.17
2022-10-08T02:20:14.916Z,79.96
2022-10-08T02:23:37.542Z,80.27
2022-10-08T02:26:52.625Z,80.83
2022-10-08T02:30:14.841Z,81.20
2022-10-08T02:33:38.980Z,82.39
2022-10-08T02:36:51.451Z,82.12
2022-10-08T02:40:05.879Z,82.03
2022-10-08T02:43:21.823Z,81.18
2022-10-08T02:46:34.571Z,81.00
2022-10-08T02:49:51.545Z,81.47
2022-10-08T02:52:58.257Z,81.06
2022-10-08T02:56:21.319Z,81.36
2022-10-08T02:59:29.429Z,80.77
2022-10-08T03:02:46.206Z,80.41
2022-10-08T03:05:57.020Z,81.94
2022-10-08T03:09:06.975Z,82.22
2022-10-08T03:12:13.239Z,82.14
2022-10-08T03:15:19.233Z,81.63
2022-10-08T03:18:29.333Z,81.25
2022-10-08T03:21:39.533Z,81.48
2022-10-08T03:24:46.358Z,82.28
2022-10-08T03:27:53.907Z,82.95
2022-10-08T03:30:59.495Z,83.07
2022-10-08T03:34:05.180Z,82.98
2022-10-08T03:37:15.865Z,83.14
2022-10-08T03:40:21.566Z,82.47
2022-10-08T03:43:36.245Z,81.91
2022-10-08T03:46:41.923Z,80.75
2022-10-08T03:49:47.515Z,81.00
2022-10-08T03:52:55.790Z,80.05
2022-10-08T03:56:05.416Z,78.96
2022-10-08T03:59:11.490Z,78.64
2022-10-08T04:02:17.548Z,80.33
2022-10-08T04:05:23.155Z,80.58
2022-10-08T04:08:31.511Z,80.74
2022-10-08T04:11:37.097Z,80.65
2022-10-08T04:14:42.820Z,80.39
2022-10-08T04:17:48.440Z,80.35
2022-10-08T04:20:54.035Z,80.53
2022-10-08T04:24:05.264Z,80.62
2022-10-08T04:27:15.343Z,83.46
2022-10-08T04:30:27.495Z,83.88
2022-10-08T04:33:44.534Z,85.21
2022-10-08T04:36:50.114Z,84.34
2022-10-08T04:39:58.357Z,85.25
2022-10-08T04:43:10.497Z,84.17
2022-10-08T04:46:23.032Z,82.75
2022-10-08T04:49:29.972Z,81.59
2022-10-08T04:52:35.683Z,81.12
2022-10-08T04:55:43.815Z,81.26
2022-10-08T04:58:51.278Z,81.21
2022-10-08T05:01:59.430Z,82.30
2022-10-08T05:05:05.081Z,83.04
2022-10-08T05:08:11.390Z,82.69
2022-10-08T05:11:29.100Z,82.83
2022-10-08T05:14:34.712Z,83.27
2022-10-08T05:17:40.258Z,84.50
2022-10-08T05:20:45.841Z,84.19
2022-10-08T05:23:56.992Z,84.59
2022-10-08T05:27:06.329Z,84.69
2022-10-08T05:30:21.975Z,85.12
2022-10-08T05:33:30.490Z,84.98
2022-10-08T05:36:38.201Z,85.30
2022-10-08T05:39:43.811Z,84.63
2022-10-08T05:42:51.975Z,84.39
2022-10-08T05:45:57.545Z,84.87
2022-10-08T05:49:07.177Z,85.39
2022-10-08T05:52:12.971Z,85.19
2022-10-08T05:55:18.852Z,84.79
2022-10-08T05:58:30.388Z,84.13
2022-10-08T06:01:37.459Z,83.75
2022-10-08T06:04:43.104Z,82.60
2022-10-08T06:07:48.666Z,81.04
2022-10-08T06:10:55.243Z,80.18
2022-10-08T06:14:06.218Z,77.33
2022-10-08T06:17:12.286Z,74.03
2022-10-08T06:20:18.045Z,74.02
2022-10-08T06:23:26.191Z,75.36
2022-10-08T06:26:36.130Z,76.50
2022-10-08T06:29:46.270Z,74.79
2022-10-08T06:32:51.861Z,75.66
2022-10-08T06:35:58.514Z,74.74
2022-10-08T06:39:07.598Z,74.24
2022-10-08T06:42:13.181Z,74.17
2022-10-08T06:45:21.721Z,75.33
2022-10-08T06:48:27.321Z,74.79
2022-10-08T06:51:33.391Z,72.79
2022-10-08T06:54:38.938Z,72.49
2022-10-08T06:57:44.549Z,70.32
2022-10-08T07:00:52.713Z,70.17
2022-10-08T07:04:01.231Z,70.89
2022-10-08T07:07:07.170Z,70.35
2022-10-08T07:10:18.336Z,69.04
2022-10-08T07:13:24.375Z,68.08
2022-10-08T07:16:32.711Z,65.27
2022-10-08T07:19:38.665Z,61.04
2022-10-08T07:22:44.419Z,58.39
2022-10-08T07:25:59.983Z,60.00
2022-10-08T07:29:09.611Z,61.82
2022-10-08T07:32:17.800Z,59.23
2022-10-08T07:35:23.347Z,57.83
2022-10-08T07:38:28.920Z,55.94
2022-10-08T07:41:34.707Z,54.64
2022-10-08T07:44:46.163Z,53.68
2022-10-08T07:47:54.283Z,53.34
2022-10-08T07:51:08.459Z,54.70
2022-10-08T07:54:19.808Z,52.92
2022-10-08T07:57:25.594Z,52.64
2022-10-08T08:00:31.577Z,50.68
2022-10-08T08:03:47.243Z,53.38
2022-10-08T08:06:52.803Z,52.71
2022-10-08T08:09:58.378Z,52.83
2022-10-08T08:13:15.566Z,50.99
2022-10-08T08:16:25.600Z,49.49
2022-10-08T08:19:40.390Z,47.29
2022-10-08T08:22:46.202Z,46.35
2022-10-08T08:25:52.172Z,45.25
2022-10-08T08:29:07.990Z,48.77
2022-10-08T08:32:15.554Z,48.88
2022-10-08T08:35:22.245Z,47.64
2022-10-08T08:38:28.044Z,48.18
2022-10-08T08:42:04.468Z,47.68
2022-10-08T08:45:45.914Z,47.75
2022-10-08T08:49:08.357Z,50.31
2022-10-08T08:52:27.703Z,52.76
2022-10-08T08:55:42.290Z,51.51
2022-10-08T08:59:03.372Z,53.14
2022-10-08T09:02:29.708Z,52.10
2022-10-08T09:05:44.435Z,53.80
2022-10-08T09:09:04.876Z,53.81
2022-10-08T09:12:22.490Z,53.32
2022-10-08T09:15:37.460Z,54.03
2022-10-08T09:18:51.874Z,54.78
2022-10-08T09:21:57.590Z,54.45
2022-10-08T09:25:17.906Z,52.86
2022-10-08T09:28:47.415Z,51.78
2022-10-08T09:31:56.678Z,51.75
2022-10-08T09:35:11.154Z,51.58
2022-10-08T09:38:29.230Z,51.74
2022-10-08T09:41:43.807Z,53.00
2022-10-08T09:44:52.558Z,52.78
2022-10-08T09:48:27.121Z,52.04
2022-10-08T09:51:35.480Z,53.56
2022-10-08T09:54:49.844Z,54.20
2022-10-08T09:58:03.733Z,55.03
2022-10-08T10:01:17.779Z,55.09
2022-10-08T10:04:37.464Z,55.94
2022-10-08T10:07:48.492Z,56.05
2022-10-08T10:10:54.177Z,55.82
2022-10-08T10:14:09.384Z,55.27
2022-10-08T10:17:28.573Z,53.72
2022-10-08T10:20:42.947Z,53.25
2022-10-08T10:24:09.349Z,52.71
2022-10-08T10:27:27.296Z,51.78
2022-10-08T10:30:50.881Z,50.58
2022-10-08T10:34:05.935Z,49.96
2022-10-08T10:37:19.701Z,50.10
2022-10-08T10:40:38.359Z,48.95
2022-10-08T10:43:53.992Z,45.63
2022-10-08T10:47:05.880Z,46.37
2022-10-08T10:50:18.185Z,45.73
2022-10-08T10:53:43.942Z,45.18
2022-10-08T10:57:02.272Z,43.69
2022-10-08T11:00:25.592Z,45.30
2022-10-08T11:03:48.554Z,45.64
2022-10-08T11:07:09.056Z,47.81
2022-10-08T11:10:40.613Z,49.44
2022-10-08T11:14:24.391Z,49.47
2022-10-08T11:17:54.706Z,50.41
2022-10-08T11:21:29.253Z,52.96
2022-10-08T11:25:05.209Z,51.06
2022-10-08T11:28:31.838Z,52.90
2022-10-08T11:31:48.503Z,52.58
2022-10-08T11:35:10.688Z,50.55
2022-10-08T11:38:31.750Z,51.71
2022-10-08T11:41:53.632Z,51.49
2022-10-08T11:45:18.189Z,51.24
2022-10-08T11:48:38.432Z,51.20
2022-10-08T11:51:46.394Z,50.09
2022-10-08T11:54:56.007Z,51.67
2022-10-08T11:58:08.529Z,51.83
2022-10-08T12:01:16.051Z,52.12
2022-10-08T12:04:34.351Z,51.97
2022-10-08T12:07:44.214Z,51.19
2022-10-08T12:10:50.818Z,51.48
2022-10-08T12:14:30.377Z,52.10
2022-10-08T12:17:56.804Z,52.95
2022-10-08T12:21:51.389Z,53.28
2022-10-08T12:25:00.059Z,52.67
2022-10-08T12:28:50.842Z,50.94
2022-10-08T12:32:07.837Z,51.16
2022-10-08T12:35:26.952Z,51.69
2022-10-08T12:38:51.311Z,51.02
2022-10-08T12:42:17.989Z,49.76
2022-10-08T12:45:40.387Z,50.26
2022-10-08T12:48:56.702Z,48.82
2022-10-08T12:52:10.641Z,50.09
2022-10-08T12:55:26.483Z,48.82
2022-10-08T12:58:38.696Z,50.04
2022-10-08T13:01:53.652Z,50.09
2022-10-08T13:04:59.523Z,50.77
2022-10-08T13:08:35.311Z,50.91
2022-10-08T13:11:44.775Z,50.92
2022-10-08T13:15:03.838Z,51.30
2022-10-08T13:18:26.250Z,52.78
2022-10-08T13:21:41.063Z,52.52
2022-10-08T13:24:50.858Z,52.48
2022-10-08T13:28:17.558Z,53.51
2022-10-08T13:31:27.341Z,54.80
2022-10-08T13:34:43.257Z,55.64
2022-10-08T13:37:57.253Z,56.18
2022-10-08T13:41:27.211Z,56.36
2022-10-08T13:44:38.013Z,58.14
2022-10-08T13:47:43.812Z,57.06
2022-10-08T13:50:53.146Z,57.07
2022-10-08T13:53:59.207Z,57.64
2022-10-08T13:57:05.073Z,58.13
2022-10-08T14:00:21.227Z,57.58
2022-10-08T14:03:27.339Z,57.77
2022-10-08T14:06:34.522Z,57.96
2022-10-08T14:09:40.592Z,58.17
2022-10-08T14:12:46.529Z,58.36
2022-10-08T14:15:55.278Z,57.89
2022-10-08T14:19:12.322Z,57.98
2022-10-08T14:22:19.192Z,57.97
2022-10-08T14:25:32.057Z,58.41
2022-10-08T14:28:38.104Z,59.25
2022-10-08T14:31:46.839Z,58.69
2022-10-08T14:34:52.662Z,59.28
2022-10-08T14:37:58.561Z,60.09
2022-10-08T14:41:15.575Z,60.31
2022-10-08T14:44:22.716Z,59.93
2022-10-08T14:47:37.974Z,59.86
2022-10-08T14:50:44.161Z,59.62
2022-10-08T14:53:50.437Z,59.69
2022-10-08T14:56:59.149Z,60.29
2022-10-08T15:00:27.083Z,60.76
2022-10-08T15:03:35.594Z,60.58
2022-10-08T15:06:41.466Z,61.21
2022-10-08T15:09:52.789Z,61.08
2022-10-08T15:12:58.653Z,62.08
2022-10-08T15:16:17.136Z,61.77
2022-10-08T15:19:25.623Z,61.94
2022-10-08T15:22:31.475Z,61.36
2022-10-08T15:25:37.310Z,62.24
2022-10-08T15:28:44.043Z,61.96
2022-10-08T15:31:52.140Z,60.97
2022-10-08T15:35:00.533Z,61.14
2022-10-08T15:38:06.509Z,61.56
2022-10-08T15:41:12.217Z,61.48
2022-10-08T15:44:24.886Z,62.01
2022-10-08T15:47:30.656Z,62.06
2022-10-08T15:50:39.349Z,62.70
2022-10-08T15:53:44.995Z,63.08
2022-10-08T15:56:50.730Z,63.07
2022-10-08T15:59:58.443Z,63.04
2022-10-08T16:03:04.711Z,63.64
2022-10-08T16:06:17.515Z,63.19
2022-10-08T16:09:25.826Z,63.36
2022-10-08T16:12:31.547Z,63.69
2022-10-08T16:15:40.310Z,64.69
2022-10-08T16:18:47.606Z,64.76
2022-10-08T16:22:01.400Z,65.29
2022-10-08T16:25:08.218Z,65.75
2022-10-08T16:28:13.879Z,65.89
2022-10-08T16:31:20.706Z,65.93
2022-10-08T16:34:28.924Z,65.67
2022-10-08T16:37:37.153Z,66.18
2022-10-08T16:40:42.731Z,66.77
2022-10-08T16:43:54.618Z,66.93
2022-10-08T16:47:00.201Z,66.94
2022-10-08T16:50:12.931Z,66.81
2022-10-08T16:53:21.128Z,67.56
2022-10-08T16:56:29.773Z,67.63
2022-10-08T16:59:44.106Z,67.93
2022-10-08T17:02:50.214Z,68.41
2022-10-08T17:05:59.201Z,67.95
2022-10-08T17:09:09.988Z,68.11
2022-10-08T17:12:19.661Z,68.35
2022-10-08T17:15:27.308Z,68.86
2022-10-08T17:18:34.228Z,68.81
2022-10-08T17:21:39.828Z,69.27
2022-10-08T17:24:47.972Z,69.56
2022-10-08T17:27:54.011Z,69.30
2022-10-08T17:31:14.576Z,69.57
2022-10-08T17:34:20.595Z,69.98
2022-10-08T17:37:26.148Z,69.85
2022-10-08T17:40:49.304Z,70.23
2022-10-08T17:43:56.769Z,69.65
2022-10-08T17:47:02.617Z,70.50
2022-10-08T17:50:09.518Z,70.13
2022-10-08T17:53:15.261Z,70.44
2022-10-08T17:56:26.201Z,70.97
2022-10-08T17:59:38.275Z,70.97
2022-10-08T18:02:43.905Z,70.73
2022-10-08T18:05:59.319Z,71.20
2022-10-08T18:09:08.193Z,71.20
2022-10-08T18:12:16.436Z,71.16
2022-10-08T18:15:21.941Z,71.54
2022-10-08T18:18:30.603Z,71.60
2022-10-08T18:21:36.247Z,71.56
2022-10-08T18:24:41.785Z,71.38
2022-10-08T18:27:50.849Z,71.31
2022-10-08T18:30:56.471Z,71.35
2022-10-08T18:34:05.243Z,71.37
2022-10-08T18:37:11.089Z,71.64
2022-10-08T18:40:16.955Z,71.36
2022-10-08T18:43:25.126Z,71.22
2022-10-08T18:46:31.909Z,70.85
2022-10-08T18:49:37.667Z,70.91
2022-10-08T18:52:43.249Z,71.10
2022-10-08T18:55:52.726Z,71.02
2022-10-08T18:59:06.346Z,70.29
2022-10-08T19:02:13.071Z,70.62
2022-10-08T19:05:19.123Z,70.39
2022-10-08T19:08:24.949Z,69.66
2022-10-08T19:11:33.967Z,70.06
2022-10-08T19:14:42.115Z,69.82
2022-10-08T19:17:50.526Z,69.99
2022-10-08T19:20:56.145Z,69.92
2022-10-08T19:24:03.175Z,69.90
2022-10-08T19:27:08.790Z,70.12
2022-10-08T19:30:22.464Z,70.16
2022-10-08T19:33:30.423Z,69.96
2022-10-08T19:36:40.148Z,70.17
2022-10-08T19:39:47.504Z,69.71
2022-10-08T19:42:53.091Z,70.15
2022-10-08T19:46:06.303Z,69.71
2022-10-08T19:49:14.138Z,69.38
2022-10-08T19:52:19.773Z,69.38
2022-10-08T19:55:25.356Z,69.89
2022-10-08T19:58:31.153Z,69.68
2022-10-08T20:01:44.961Z,69.70
2022-10-08T20:04:50.640Z,70.12
2022-10-08T20:07:56.427Z,70.36
2022-10-08T20:11:06.542Z,70.03
2022-10-08T20:14:13.314Z,70.46
2022-10-08T20:17:22.199Z,70.49
2022-10-08T20:20:33.412Z,70.02
2022-10-08T20:23:42.456Z,70.35
2022-10-08T20:26:49.199Z,69.76
2022-10-08T20:29:54.995Z,69.98
2022-10-08T20:33:03.295Z,70.39
2022-10-08T20:36:09.089Z,70.12
2022-10-08T20:39:17.626Z,69.98
2022-10-08T20:42:23.610Z,70.55
2022-10-08T20:45:29.293Z,70.76
2022-10-08T20:48:39.035Z,70.41
2022-10-08T20:51:46.869Z,70.21
2022-10-08T20:54:52.460Z,70.25
2022-10-08T20:57:58.167Z,69.70
2022-10-08T21:01:09.746Z,69.74
2022-10-08T21:04:18.085Z,69.27
2022-10-08T21:07:23.832Z,68.99
2022-10-08T21:10:29.486Z,69.02
2022-10-08T21:13:36.836Z,69.00
2022-10-08T21:16:44.232Z,68.73
2022-10-08T21:19:52.448Z,68.66
2022-10-08T21:22:58.253Z,67.82
2022-10-08T21:26:13.414Z,67.53
2022-10-08T21:29:19.129Z,67.33
2022-10-08T21:32:24.823Z,67.66
2022-10-08T21:35:33.140Z,67.86
2022-10-08T21:38:38.887Z,67.86
2022-10-08T21:41:44.831Z,67.75
2022-10-08T21:44:50.497Z,67.47
2022-10-08T21:47:56.344Z,67.54
2022-10-08T21:51:08.807Z,67.53
2022-10-08T21:54:15.255Z,67.23
2022-10-08T21:57:21.276Z,66.59
2022-10-08T22:00:37.026Z,66.74
2022-10-08T22:03:42.887Z,66.78
2022-10-08T22:06:53.976Z,66.50
2022-10-08T22:09:59.685Z,66.22
2022-10-08T22:13:05.669Z,66.18
2022-10-08T22:16:14.245Z,65.75
2022-10-08T22:19:21.245Z,65.84
2022-10-08T22:22:29.591Z,65.88
2022-10-08T22:25:35.376Z,66.30
2022-10-08T22:28:41.731Z,66.20
2022-10-08T22:31:48.472Z,66.42
2022-10-08T22:34:54.174Z,65.76
2022-10-08T22:38:02.906Z,66.43
2022-10-08T22:41:12.141Z,65.96
2022-10-08T22:44:17.949Z,65.28
2022-10-08T22:47:23.704Z,64.53
2022-10-08T22:50:29.516Z,65.10
2022-10-08T22:53:38.812Z,64.99
2022-10-08T22:56:44.609Z,64.54
2022-10-08T22:59:50.358Z,64.63
2022-10-08T23:02:57.876Z,64.76
2022-10-08T23:06:06.846Z,64.89
2022-10-08T23:09:28.068Z,65.26
2022-10-08T23:12:33.920Z,65.54
2022-10-08T23:15:39.687Z,65.25
2022-10-08T23:18:54.433Z,65.66
2022-10-08T23:22:00.252Z,65.29
2022-10-08T23:25:15.074Z,65.91
2022-10-08T23:28:21.030Z,66.45
2022-10-08T23:31:30.792Z,66.10
2022-10-08T23:34:39.936Z,65.89
2022-10-08T23:37:47.423Z,66.31
2022-10-08T23:40:55.832Z,66.40
2022-10-08T23:44:02.058Z,66.46
2022-10-08T23:47:07.994Z,66.79
2022-10-08T23:50:13.837Z,66.69
2022-10-08T23:53:19.416Z,66.80
2022-10-08T23:56:27.990Z,66.78
2022-10-08T23:59:33.652Z,66.61
